sensor_id;sensor_type;location;lat;lon;timestamp;P1;durP1;ratioP1;P2;durP2;ratioP2
7519;SDS011;3801;48.876;10.184;2022-11-18T00:02:28;2.13;;;1.50;;
7519;SDS011;3801;48.876;10.184;2022-11-18T00:07:32;1.57;;;1.10;;
7519;SDS011;3801;48.876;10.184;2022-11-18T00:12:36;0.50;;;0.50;;
7519;SDS011;3801;48.876;10.184;2022-11-18T00:17:58;0.80;;;0.77;;
7519;SDS011;3801;48.876;10.184;2022-11-18T00:23:01;1.50;;;0.70;;
7519;SDS011;3801;48.876;10.184;2022-11-18T00:28:06;2.93;;;1.80;;
7519;SDS011;3801;48.876;10.184;2022-11-18T00:33:09;1.20;;;0.90;;
7519;SDS011;3801;48.876;10.184;2022-11-18T00:38:12;1.63;;;1.10;;
7519;SDS011;3801;48.876;10.184;2022-11-18T00:43:17;4.53;;;1.77;;
7519;SDS011;3801;48.876;10.184;2022-11-18T00:48:20;1.77;;;1.17;;
7519;SDS011;3801;48.876;10.184;2022-11-18T00:53:24;0.67;;;0.50;;
7519;SDS011;3801;48.876;10.184;2022-11-18T00:58:29;0.70;;;0.50;;
7519;SDS011;3801;48.876;10.184;2022-11-18T01:03:33;1.43;;;0.60;;
7519;SDS011;3801;48.876;10.184;2022-11-18T01:08:37;0.40;;;0.40;;
7519;SDS011;3801;48.876;10.184;2022-11-18T01:13:42;1.10;;;0.70;;
7519;SDS011;3801;48.876;10.184;2022-11-18T01:18:45;1.30;;;1.10;;
7519;SDS011;3801;48.876;10.184;2022-11-18T01:23:49;1.20;;;1.00;;
7519;SDS011;3801;48.876;10.184;2022-11-18T01:28:55;1.10;;;0.67;;
7519;SDS011;3801;48.876;10.184;2022-11-18T01:33:59;2.20;;;0.40;;
7519;SDS011;3801;48.876;10.184;2022-11-18T01:39:02;0.40;;;0.40;;
7519;SDS011;3801;48.876;10.184;2022-11-18T01:49:25;0.37;;;0.37;;
7519;SDS011;3801;48.876;10.184;2022-11-18T01:54:29;0.40;;;0.40;;
7519;SDS011;3801;48.876;10.184;2022-11-18T01:59:34;2.50;;;0.50;;
7519;SDS011;3801;48.876;10.184;2022-11-18T02:04:40;0.30;;;0.30;;
7519;SDS011;3801;48.876;10.184;2022-11-18T02:09:44;0.50;;;0.50;;
7519;SDS011;3801;48.876;10.184;2022-11-18T02:14:47;0.50;;;0.50;;
7519;SDS011;3801;48.876;10.184;2022-11-18T02:20:13;0.73;;;0.67;;
7519;SDS011;3801;48.876;10.184;2022-11-18T02:25:21;0.60;;;0.60;;
7519;SDS011;3801;48.876;10.184;2022-11-18T02:30:30;0.60;;;0.60;;
7519;SDS011;3801;48.876;10.184;2022-11-18T02:35:37;0.70;;;0.70;;
7519;SDS011;3801;48.876;10.184;2022-11-18T02:40:42;0.60;;;0.60;;
7519;SDS011;3801;48.876;10.184;2022-11-18T02:45:48;0.70;;;0.70;;
7519;SDS011;3801;48.876;10.184;2022-11-18T02:50:52;1.40;;;0.70;;
7519;SDS011;3801;48.876;10.184;2022-11-18T02:55:56;2.00;;;0.70;;
7519;SDS011;3801;48.876;10.184;2022-11-18T03:01:02;1.00;;;0.90;;
7519;SDS011;3801;48.876;10.184;2022-11-18T03:06:07;2.63;;;0.93;;
7519;SDS011;3801;48.876;10.184;2022-11-18T03:11:13;1.63;;;0.93;;
7519;SDS011;3801;48.876;10.184;2022-11-18T03:16:21;0.80;;;0.80;;
7519;SDS011;3801;48.876;10.184;2022-11-18T03:21:27;1.00;;;0.90;;
7519;SDS011;3801;48.876;10.184;2022-11-18T03:26:34;0.97;;;0.90;;
7519;SDS011;3801;48.876;10.184;2022-11-18T03:31:40;1.23;;;1.10;;
7519;SDS011;3801;48.876;10.184;2022-11-18T03:36:45;1.10;;;1.00;;
7519;SDS011;3801;48.876;10.184;2022-11-18T03:41:53;1.40;;;1.20;;
7519;SDS011;3801;48.876;10.184;2022-11-18T03:47:00;1.17;;;1.07;;
7519;SDS011;3801;48.876;10.184;2022-11-18T03:52:05;1.30;;;1.20;;
7519;SDS011;3801;48.876;10.184;2022-11-18T03:57:11;2.30;;;1.60;;
7519;SDS011;3801;48.876;10.184;2022-11-18T04:02:17;1.00;;;1.00;;
7519;SDS011;3801;48.876;10.184;2022-11-18T04:07:23;1.40;;;1.30;;
7519;SDS011;3801;48.876;10.184;2022-11-18T04:12:28;0.93;;;0.90;;
7519;SDS011;3801;48.876;10.184;2022-11-18T04:17:35;1.23;;;1.13;;
7519;SDS011;3801;48.876;10.184;2022-11-18T04:22:38;1.17;;;1.07;;
7519;SDS011;3801;48.876;10.184;2022-11-18T04:27:42;1.40;;;1.13;;
7519;SDS011;3801;48.876;10.184;2022-11-18T04:32:46;1.40;;;1.30;;
7519;SDS011;3801;48.876;10.184;2022-11-18T04:37:50;1.50;;;1.40;;
7519;SDS011;3801;48.876;10.184;2022-11-18T04:42:53;1.57;;;1.47;;
7519;SDS011;3801;48.876;10.184;2022-11-18T04:47:58;3.10;;;1.40;;
7519;SDS011;3801;48.876;10.184;2022-11-18T04:53:04;1.70;;;1.60;;
7519;SDS011;3801;48.876;10.184;2022-11-18T04:58:08;1.97;;;1.50;;
7519;SDS011;3801;48.876;10.184;2022-11-18T05:03:14;3.33;;;1.37;;
7519;SDS011;3801;48.876;10.184;2022-11-18T05:08:18;1.53;;;1.10;;
7519;SDS011;3801;48.876;10.184;2022-11-18T05:13:21;0.90;;;0.90;;
7519;SDS011;3801;48.876;10.184;2022-11-18T05:18:26;0.60;;;0.60;;
7519;SDS011;3801;48.876;10.184;2022-11-18T05:23:29;0.93;;;0.60;;
7519;SDS011;3801;48.876;10.184;2022-11-18T05:28:33;0.60;;;0.60;;
7519;SDS011;3801;48.876;10.184;2022-11-18T05:33:38;2.90;;;1.20;;
7519;SDS011;3801;48.876;10.184;2022-11-18T05:38:41;3.80;;;0.90;;
7519;SDS011;3801;48.876;10.184;2022-11-18T05:43:45;0.97;;;0.97;;
7519;SDS011;3801;48.876;10.184;2022-11-18T05:48:49;1.10;;;1.00;;
7519;SDS011;3801;48.876;10.184;2022-11-18T05:53:53;0.87;;;0.87;;
7519;SDS011;3801;48.876;10.184;2022-11-18T05:58:57;0.63;;;0.63;;
7519;SDS011;3801;48.876;10.184;2022-11-18T06:04:01;0.70;;;0.70;;
7519;SDS011;3801;48.876;10.184;2022-11-18T06:09:06;1.00;;;0.90;;
7519;SDS011;3801;48.876;10.184;2022-11-18T06:14:11;0.77;;;0.77;;
7519;SDS011;3801;48.876;10.184;2022-11-18T06:19:18;0.70;;;0.70;;
7519;SDS011;3801;48.876;10.184;2022-11-18T06:24:22;2.40;;;0.97;;
7519;SDS011;3801;48.876;10.184;2022-11-18T06:29:26;0.60;;;0.60;;
7519;SDS011;3801;48.876;10.184;2022-11-18T06:34:31;0.30;;;0.30;;
7519;SDS011;3801;48.876;10.184;2022-11-18T06:39:42;0.60;;;0.60;;
7519;SDS011;3801;48.876;10.184;2022-11-18T06:44:45;1.03;;;1.00;;
7519;SDS011;3801;48.876;10.184;2022-11-18T06:49:50;1.10;;;0.97;;
7519;SDS011;3801;48.876;10.184;2022-11-18T06:54:53;1.10;;;1.10;;
7519;SDS011;3801;48.876;10.184;2022-11-18T06:59:56;0.90;;;0.90;;
7519;SDS011;3801;48.876;10.184;2022-11-18T07:05:05;0.90;;;0.90;;
7519;SDS011;3801;48.876;10.184;2022-11-18T07:10:10;1.73;;;0.77;;
7519;SDS011;3801;48.876;10.184;2022-11-18T07:15:14;0.97;;;0.70;;
7519;SDS011;3801;48.876;10.184;2022-11-18T07:20:19;0.40;;;0.40;;
7519;SDS011;3801;48.876;10.184;2022-11-18T07:25:22;1.90;;;0.90;;
7519;SDS011;3801;48.876;10.184;2022-11-18T07:30:26;1.13;;;1.07;;
7519;SDS011;3801;48.876;10.184;2022-11-18T07:35:31;0.90;;;0.90;;
7519;SDS011;3801;48.876;10.184;2022-11-18T07:40:35;0.87;;;0.80;;
7519;SDS011;3801;48.876;10.184;2022-11-18T07:45:38;1.47;;;1.27;;
7519;SDS011;3801;48.876;10.184;2022-11-18T07:50:43;0.90;;;0.90;;
7519;SDS011;3801;48.876;10.184;2022-11-18T07:55:48;0.83;;;0.83;;
7519;SDS011;3801;48.876;10.184;2022-11-18T08:00:51;0.90;;;0.90;;
7519;SDS011;3801;48.876;10.184;2022-11-18T08:05:58;1.10;;;1.00;;
7519;SDS011;3801;48.876;10.184;2022-11-18T08:11:02;0.73;;;0.73;;
7519;SDS011;3801;48.876;10.184;2022-11-18T08:16:10;0.83;;;0.83;;
7519;SDS011;3801;48.876;10.184;2022-11-18T08:21:18;0.93;;;0.83;;
7519;SDS011;3801;48.876;10.184;2022-11-18T08:26:22;0.70;;;0.70;;
7519;SDS011;3801;48.876;10.184;2022-11-18T08:31:26;0.97;;;0.97;;
7519;SDS011;3801;48.876;10.184;2022-11-18T08:36:33;1.80;;;1.23;;
7519;SDS011;3801;48.876;10.184;2022-11-18T08:41:37;1.13;;;1.03;;
7519;SDS011;3801;48.876;10.184;2022-11-18T08:46:43;1.93;;;1.00;;
7519;SDS011;3801;48.876;10.184;2022-11-18T08:51:51;1.27;;;1.10;;
7519;SDS011;3801;48.876;10.184;2022-11-18T08:56:54;1.30;;;1.20;;
7519;SDS011;3801;48.876;10.184;2022-11-18T09:01:58;1.20;;;1.10;;
7519;SDS011;3801;48.876;10.184;2022-11-18T09:07:02;1.13;;;1.10;;
7519;SDS011;3801;48.876;10.184;2022-11-18T09:12:06;5.23;;;1.50;;
7519;SDS011;3801;48.876;10.184;2022-11-18T09:17:10;1.53;;;1.20;;
7519;SDS011;3801;48.876;10.184;2022-11-18T09:22:14;1.20;;;1.10;;
7519;SDS011;3801;48.876;10.184;2022-11-18T09:27:18;1.20;;;1.10;;
7519;SDS011;3801;48.876;10.184;2022-11-18T09:32:21;1.30;;;1.20;;
7519;SDS011;3801;48.876;10.184;2022-11-18T09:37:26;1.03;;;1.00;;
7519;SDS011;3801;48.876;10.184;2022-11-18T09:42:33;1.00;;;0.97;;
7519;SDS011;3801;48.876;10.184;2022-11-18T09:47:41;1.00;;;1.00;;
7519;SDS011;3801;48.876;10.184;2022-11-18T09:52:47;0.73;;;0.73;;
7519;SDS011;3801;48.876;10.184;2022-11-18T09:57:54;3.10;;;2.53;;
7519;SDS011;3801;48.876;10.184;2022-11-18T10:02:59;1.40;;;1.30;;
7519;SDS011;3801;48.876;10.184;2022-11-18T10:08:07;0.80;;;0.80;;
7519;SDS011;3801;48.876;10.184;2022-11-18T10:13:17;1.10;;;0.90;;
7519;SDS011;3801;48.876;10.184;2022-11-18T10:18:26;0.97;;;0.97;;
7519;SDS011;3801;48.876;10.184;2022-11-18T10:23:54;1.30;;;1.20;;
7519;SDS011;3801;48.876;10.184;2022-11-18T10:29:01;0.80;;;0.80;;
7519;SDS011;3801;48.876;10.184;2022-11-18T10:34:07;1.03;;;0.97;;
7519;SDS011;3801;48.876;10.184;2022-11-18T10:39:14;0.70;;;0.60;;
7519;SDS011;3801;48.876;10.184;2022-11-18T10:44:29;0.93;;;0.93;;
7519;SDS011;3801;48.876;10.184;2022-11-18T10:49:36;1.07;;;0.90;;
7519;SDS011;3801;48.876;10.184;2022-11-18T10:54:41;0.97;;;0.90;;
7519;SDS011;3801;48.876;10.184;2022-11-18T10:59:45;1.10;;;1.00;;
7519;SDS011;3801;48.876;10.184;2022-11-18T11:04:49;1.20;;;1.10;;
7519;SDS011;3801;48.876;10.184;2022-11-18T11:09:59;0.80;;;0.80;;
7519;SDS011;3801;48.876;10.184;2022-11-18T11:15:04;0.90;;;0.90;;
7519;SDS011;3801;48.876;10.184;2022-11-18T11:20:09;1.20;;;1.10;;
7519;SDS011;3801;48.876;10.184;2022-11-18T11:25:17;0.90;;;0.90;;
7519;SDS011;3801;48.876;10.184;2022-11-18T11:30:22;1.03;;;0.90;;
7519;SDS011;3801;48.876;10.184;2022-11-18T11:35:26;1.00;;;1.00;;
7519;SDS011;3801;48.876;10.184;2022-11-18T11:40:34;1.00;;;1.00;;
7519;SDS011;3801;48.876;10.184;2022-11-18T11:45:41;1.73;;;1.50;;
7519;SDS011;3801;48.876;10.184;2022-11-18T11:50:49;1.03;;;1.03;;
7519;SDS011;3801;48.876;10.184;2022-11-18T11:56:18;1.67;;;1.20;;
7519;SDS011;3801;48.876;10.184;2022-11-18T12:01:25;1.23;;;1.13;;
7519;SDS011;3801;48.876;10.184;2022-11-18T12:06:30;1.30;;;1.20;;
7519;SDS011;3801;48.876;10.184;2022-11-18T12:11:36;1.73;;;1.57;;
7519;SDS011;3801;48.876;10.184;2022-11-18T12:16:41;1.70;;;1.60;;
7519;SDS011;3801;48.876;10.184;2022-11-18T12:21:55;1.50;;;1.40;;
7519;SDS011;3801;48.876;10.184;2022-11-18T12:27:03;1.70;;;1.60;;
7519;SDS011;3801;48.876;10.184;2022-11-18T12:37:44;3.53;;;2.00;;
7519;SDS011;3801;48.876;10.184;2022-11-18T12:42:49;2.00;;;1.83;;
7519;SDS011;3801;48.876;10.184;2022-11-18T12:48:25;2.23;;;2.00;;
7519;SDS011;3801;48.876;10.184;2022-11-18T12:53:34;4.17;;;2.50;;
7519;SDS011;3801;48.876;10.184;2022-11-18T12:58:41;4.03;;;3.10;;
7519;SDS011;3801;48.876;10.184;2022-11-18T13:03:46;2.83;;;2.63;;
7519;SDS011;3801;48.876;10.184;2022-11-18T13:08:50;2.50;;;2.30;;
7519;SDS011;3801;48.876;10.184;2022-11-18T13:13:56;2.93;;;2.60;;
7519;SDS011;3801;48.876;10.184;2022-11-18T13:19:19;2.90;;;2.50;;
7519;SDS011;3801;48.876;10.184;2022-11-18T13:24:23;3.93;;;2.70;;
7519;SDS011;3801;48.876;10.184;2022-11-18T13:29:29;3.33;;;2.63;;
7519;SDS011;3801;48.876;10.184;2022-11-18T13:34:39;4.20;;;2.80;;
7519;SDS011;3801;48.876;10.184;2022-11-18T13:39:43;3.33;;;3.00;;
7519;SDS011;3801;48.876;10.184;2022-11-18T13:44:52;3.80;;;3.20;;
7519;SDS011;3801;48.876;10.184;2022-11-18T13:50:02;6.13;;;2.93;;
7519;SDS011;3801;48.876;10.184;2022-11-18T13:55:07;3.03;;;2.70;;
7519;SDS011;3801;48.876;10.184;2022-11-18T14:00:18;4.93;;;3.17;;
7519;SDS011;3801;48.876;10.184;2022-11-18T14:05:22;3.43;;;2.60;;
7519;SDS011;3801;48.876;10.184;2022-11-18T14:10:34;4.00;;;2.80;;
7519;SDS011;3801;48.876;10.184;2022-11-18T14:15:42;5.47;;;2.90;;
7519;SDS011;3801;48.876;10.184;2022-11-18T14:20:50;3.23;;;2.67;;
7519;SDS011;3801;48.876;10.184;2022-11-18T14:25:53;2.50;;;2.20;;
7519;SDS011;3801;48.876;10.184;2022-11-18T14:30:59;3.80;;;2.57;;
7519;SDS011;3801;48.876;10.184;2022-11-18T14:36:08;2.10;;;1.90;;
7519;SDS011;3801;48.876;10.184;2022-11-18T14:41:13;4.13;;;1.60;;
7519;SDS011;3801;48.876;10.184;2022-11-18T14:46:18;1.60;;;1.50;;
7519;SDS011;3801;48.876;10.184;2022-11-18T14:51:22;1.30;;;1.20;;
7519;SDS011;3801;48.876;10.184;2022-11-18T14:56:26;2.97;;;1.40;;
7519;SDS011;3801;48.876;10.184;2022-11-18T15:01:31;1.50;;;1.40;;
7519;SDS011;3801;48.876;10.184;2022-11-18T15:06:35;1.33;;;1.00;;
7519;SDS011;3801;48.876;10.184;2022-11-18T15:11:38;1.83;;;1.30;;
7519;SDS011;3801;48.876;10.184;2022-11-18T15:16:43;4.47;;;1.57;;
7519;SDS011;3801;48.876;10.184;2022-11-18T15:21:46;2.70;;;1.70;;
7519;SDS011;3801;48.876;10.184;2022-11-18T15:26:50;3.27;;;2.17;;
7519;SDS011;3801;48.876;10.184;2022-11-18T15:31:55;2.70;;;1.70;;
7519;SDS011;3801;48.876;10.184;2022-11-18T15:36:58;2.80;;;1.60;;
7519;SDS011;3801;48.876;10.184;2022-11-18T15:42:01;2.50;;;2.03;;
7519;SDS011;3801;48.876;10.184;2022-11-18T15:47:05;3.63;;;2.87;;
7519;SDS011;3801;48.876;10.184;2022-11-18T15:52:09;2.37;;;2.17;;
7519;SDS011;3801;48.876;10.184;2022-11-18T15:57:12;4.37;;;3.97;;
7519;SDS011;3801;48.876;10.184;2022-11-18T16:02:17;4.10;;;3.03;;
7519;SDS011;3801;48.876;10.184;2022-11-18T16:07:20;3.50;;;2.10;;
7519;SDS011;3801;48.876;10.184;2022-11-18T16:12:24;4.53;;;2.93;;
7519;SDS011;3801;48.876;10.184;2022-11-18T16:17:46;4.60;;;2.87;;
7519;SDS011;3801;48.876;10.184;2022-11-18T16:22:49;6.80;;;3.10;;
7519;SDS011;3801;48.876;10.184;2022-11-18T16:27:54;6.20;;;2.50;;
7519;SDS011;3801;48.876;10.184;2022-11-18T16:33:07;4.70;;;2.77;;
7519;SDS011;3801;48.876;10.184;2022-11-18T16:38:10;3.80;;;2.70;;
7519;SDS011;3801;48.876;10.184;2022-11-18T16:43:14;8.00;;;2.83;;
7519;SDS011;3801;48.876;10.184;2022-11-18T16:48:19;5.33;;;2.93;;
7519;SDS011;3801;48.876;10.184;2022-11-18T16:53:22;2.77;;;2.50;;
7519;SDS011;3801;48.876;10.184;2022-11-18T16:58:25;8.43;;;3.97;;
7519;SDS011;3801;48.876;10.184;2022-11-18T17:03:30;3.97;;;2.40;;
7519;SDS011;3801;48.876;10.184;2022-11-18T17:08:34;3.53;;;2.20;;
7519;SDS011;3801;48.876;10.184;2022-11-18T17:13:37;6.50;;;2.90;;
7519;SDS011;3801;48.876;10.184;2022-11-18T17:18:42;3.33;;;2.83;;
7519;SDS011;3801;48.876;10.184;2022-11-18T17:23:46;4.47;;;3.20;;
7519;SDS011;3801;48.876;10.184;2022-11-18T17:28:50;5.30;;;3.00;;
7519;SDS011;3801;48.876;10.184;2022-11-18T17:33:55;5.70;;;2.97;;
7519;SDS011;3801;48.876;10.184;2022-11-18T17:38:59;5.53;;;3.07;;
7519;SDS011;3801;48.876;10.184;2022-11-18T17:44:03;4.90;;;2.83;;
7519;SDS011;3801;48.876;10.184;2022-11-18T17:49:10;5.63;;;3.00;;
7519;SDS011;3801;48.876;10.184;2022-11-18T17:54:14;7.83;;;4.20;;
7519;SDS011;3801;48.876;10.184;2022-11-18T17:59:18;8.03;;;3.87;;
7519;SDS011;3801;48.876;10.184;2022-11-18T18:04:23;5.33;;;3.70;;
7519;SDS011;3801;48.876;10.184;2022-11-18T18:09:26;9.10;;;4.07;;
7519;SDS011;3801;48.876;10.184;2022-11-18T18:14:32;11.40;;;6.40;;
7519;SDS011;3801;48.876;10.184;2022-11-18T18:19:39;6.97;;;4.73;;
7519;SDS011;3801;48.876;10.184;2022-11-18T18:24:42;7.73;;;5.77;;
7519;SDS011;3801;48.876;10.184;2022-11-18T18:29:46;6.50;;;4.63;;
7519;SDS011;3801;48.876;10.184;2022-11-18T18:34:50;8.00;;;4.20;;
7519;SDS011;3801;48.876;10.184;2022-11-18T18:39:54;7.33;;;3.63;;
7519;SDS011;3801;48.876;10.184;2022-11-18T18:44:57;6.83;;;4.60;;
7519;SDS011;3801;48.876;10.184;2022-11-18T18:50:19;10.23;;;4.90;;
7519;SDS011;3801;48.876;10.184;2022-11-18T18:55:30;9.93;;;5.53;;
7519;SDS011;3801;48.876;10.184;2022-11-18T19:00:33;12.80;;;7.17;;
7519;SDS011;3801;48.876;10.184;2022-11-18T19:05:38;12.60;;;7.93;;
7519;SDS011;3801;48.876;10.184;2022-11-18T19:11:03;12.80;;;6.20;;
7519;SDS011;3801;48.876;10.184;2022-11-18T19:16:07;7.03;;;5.53;;
7519;SDS011;3801;48.876;10.184;2022-11-18T19:21:12;9.33;;;5.47;;
7519;SDS011;3801;48.876;10.184;2022-11-18T19:26:15;7.37;;;5.50;;
7519;SDS011;3801;48.876;10.184;2022-11-18T19:31:18;9.37;;;7.03;;
7519;SDS011;3801;48.876;10.184;2022-11-18T19:36:23;7.50;;;5.30;;
7519;SDS011;3801;48.876;10.184;2022-11-18T19:41:26;4.67;;;4.00;;
7519;SDS011;3801;48.876;10.184;2022-11-18T19:46:30;5.10;;;3.40;;
7519;SDS011;3801;48.876;10.184;2022-11-18T19:51:35;5.00;;;3.43;;
7519;SDS011;3801;48.876;10.184;2022-11-18T19:56:39;6.30;;;4.60;;
7519;SDS011;3801;48.876;10.184;2022-11-18T20:01:42;7.00;;;5.20;;
7519;SDS011;3801;48.876;10.184;2022-11-18T20:06:47;7.73;;;5.83;;
7519;SDS011;3801;48.876;10.184;2022-11-18T20:11:50;7.87;;;5.80;;
7519;SDS011;3801;48.876;10.184;2022-11-18T20:16:54;9.23;;;4.80;;
7519;SDS011;3801;48.876;10.184;2022-11-18T20:21:59;10.17;;;5.20;;
7519;SDS011;3801;48.876;10.184;2022-11-18T20:27:02;7.67;;;5.27;;
7519;SDS011;3801;48.876;10.184;2022-11-18T20:32:06;9.60;;;5.10;;
7519;SDS011;3801;48.876;10.184;2022-11-18T20:37:11;8.10;;;5.53;;
7519;SDS011;3801;48.876;10.184;2022-11-18T20:42:15;9.30;;;5.00;;
7519;SDS011;3801;48.876;10.184;2022-11-18T20:47:36;9.27;;;5.10;;
7519;SDS011;3801;48.876;10.184;2022-11-18T20:52:41;7.13;;;4.80;;
7519;SDS011;3801;48.876;10.184;2022-11-18T20:57:44;6.23;;;4.43;;
7519;SDS011;3801;48.876;10.184;2022-11-18T21:02:48;6.30;;;4.07;;
7519;SDS011;3801;48.876;10.184;2022-11-18T21:07:55;5.30;;;3.57;;
7519;SDS011;3801;48.876;10.184;2022-11-18T21:12:58;4.77;;;3.93;;
7519;SDS011;3801;48.876;10.184;2022-11-18T21:18:19;5.17;;;3.33;;
7519;SDS011;3801;48.876;10.184;2022-11-18T21:23:24;5.60;;;3.40;;
7519;SDS011;3801;48.876;10.184;2022-11-18T21:28:27;4.97;;;3.30;;
7519;SDS011;3801;48.876;10.184;2022-11-18T21:33:31;5.63;;;3.20;;
7519;SDS011;3801;48.876;10.184;2022-11-18T21:38:35;4.90;;;3.20;;
7519;SDS011;3801;48.876;10.184;2022-11-18T21:43:39;4.63;;;3.30;;
7519;SDS011;3801;48.876;10.184;2022-11-18T21:49:03;6.83;;;3.83;;
7519;SDS011;3801;48.876;10.184;2022-11-18T21:54:08;7.97;;;3.60;;
7519;SDS011;3801;48.876;10.184;2022-11-18T21:59:12;7.83;;;3.67;;
7519;SDS011;3801;48.876;10.184;2022-11-18T22:04:15;5.70;;;3.20;;
7519;SDS011;3801;48.876;10.184;2022-11-18T22:09:34;5.13;;;3.23;;
7519;SDS011;3801;48.876;10.184;2022-11-18T22:14:38;5.60;;;3.40;;
7519;SDS011;3801;48.876;10.184;2022-11-18T22:19:41;4.73;;;3.47;;
7519;SDS011;3801;48.876;10.184;2022-11-18T22:24:46;6.50;;;3.83;;
7519;SDS011;3801;48.876;10.184;2022-11-18T22:29:50;5.07;;;3.57;;
7519;SDS011;3801;48.876;10.184;2022-11-18T22:34:54;3.93;;;3.20;;
7519;SDS011;3801;48.876;10.184;2022-11-18T22:39:58;5.10;;;3.50;;
7519;SDS011;3801;48.876;10.184;2022-11-18T22:45:02;5.63;;;2.90;;
7519;SDS011;3801;48.876;10.184;2022-11-18T22:50:05;4.40;;;2.80;;
7519;SDS011;3801;48.876;10.184;2022-11-18T22:55:10;3.10;;;2.73;;
7519;SDS011;3801;48.876;10.184;2022-11-18T23:00:14;4.33;;;3.07;;
7519;SDS011;3801;48.876;10.184;2022-11-18T23:05:18;3.17;;;2.87;;
7519;SDS011;3801;48.876;10.184;2022-11-18T23:10:22;3.27;;;2.87;;
7519;SDS011;3801;48.876;10.184;2022-11-18T23:15:26;4.37;;;2.50;;
7519;SDS011;3801;48.876;10.184;2022-11-18T23:20:29;5.23;;;3.90;;
7519;SDS011;3801;48.876;10.184;2022-11-18T23:25:34;4.17;;;3.17;;
7519;SDS011;3801;48.876;10.184;2022-11-18T23:30:37;4.23;;;3.47;;
7519;SDS011;3801;48.876;10.184;2022-11-18T23:35:41;4.20;;;3.80;;
7519;SDS011;3801;48.876;10.184;2022-11-18T23:40:45;4.73;;;4.07;;
7519;SDS011;3801;48.876;10.184;2022-11-18T23:45:56;5.10;;;4.07;;
7519;SDS011;3801;48.876;10.184;2022-11-18T23:51:02;4.60;;;3.60;;
7519;SDS011;3801;48.876;10.184;2022-11-18T23:56:07;6.03;;;3.83;;
